Loisir ou Compétition : Rejoignez un Club de la Fédération

Résultats

SAMSE NATIONAL TOUR U17 - CHAMPIONNAT DE FRANCE

ARCON

SPR Dames

Jury de Compétition

Délégué Technique :
LEJEUNE DAMIEN (MV)
D.T. Adjoint :
ROBERT JULIEN (MJ)
Dir. Epreuve :
POURCHET JOEL (MJ)
Chef Pas de Tir :
BAVEREL BRICE (MJ)

Caractéristiques de la Piste

Piste :
Stade de la Seigne
Distance :
4.5 km
Point Haut :
 
Point Bas :
 
Montée Tot. :
 
Montée Max. :
 
Homologation :
 

Pénalité Appliquée :
90.0000
Coefficient :
800

Catégorie :
U17
Style :
L
Type de Tir :
C-D- - - -
Clt Dos Clt/Cat Code An Nom Prénom Com Club Temps Pena Tps Tot Ecart Points
Classés
1 65 1/U17 FFS2670359 2002 BENED CHLOE MB CHABLAIS NOR 15:14.5 1-1 15:14.5 00:00.0 90.00
2 57 2/U17 FFS2652071 2002 RICHARD JEANNE MB LES GETS S.C 15:37.8 0-1 15:37.8 00:23.3 110.38
3 82 3/U17 FFS2677081 2002 JEANNIER LEONIE MJ SC VERRIERES 15:57.7 0-1 15:57.7 00:43.2 127.79
4 68 4/U17 FFS2665303 2002 MICHELON OCEANE SA BAUGES S.N 16:13.6 1-3 16:13.6 00:59.1 141.70
5 93 5/U17 FFS2655903 2002 BERTRAND FANY SA CS MERIBEL 16:24.0 2-0 16:24.0 01:09.5 150.80
6 76 6/U17 FFS2671448 2002 PATUREL DORINE MB SCNP ROCHOIS 16:24.1 1-1 16:24.1 01:09.6 150.89
7 54 7/U17 FFS2662969 2003 GILBERT JEANSELME LOLA DA CS VILLARD 16:37.4 2-1 16:37.4 01:22.9 162.52
8 77 8/U17 FFS2664568 2002 TRIBOULOT JEANNE MV BASS/RUPT SN 16:40.8 0-0 16:40.8 01:26.3 165.49
9 97 9/U17 FFS2671188 2002 PELLEGRINI AUGUSTINE MJ OYE-PALLET 16:42.3 0-1 16:42.3 01:27.8 166.81
10 94 10/U17 FFS2657180 2002 SIBERCHICOT LISA MJ PREMANON SC 16:57.7 2-1 16:57.7 01:43.2 180.28
11 79 11/U17 FFS2669529 2002 MOUGIN THEA MJ SC GRANDVAUX 16:58.0 3-2 16:58.0 01:43.5 180.54
12 87 12/U17 FFS2676115 2003 MAUGAIN FLAVIE MJ ES SAUGETTE 16:58.4 1-1 16:58.4 01:43.9 180.89
13 63 13/U17 FFS2681114 2003 HUYGHE LOU MJ SC ABBAYE 16:59.7 1-1 16:59.7 01:45.2 182.03
14 60 14/U17 FFS2676811 2003 BAVEREL LOANE MJ ES SAUGETTE 17:08.2 1-2 17:08.2 01:53.7 189.46
15 84 15/U17 FFS2654839 2002 GREAU ALIZEE LY SC BRENOD 17:10.4 1-1 17:10.4 01:55.9 191.39
16 95 16/U17 FFS2681102 2003 BLANC ANNA MJ SC ABBAYE 17:13.6 1-1 17:13.6 01:59.1 194.19
17 69 17/U17 FFS2680651 2002 SERRETTE LISA MJ PREMANON SC 17:15.6 1-1 17:15.6 02:01.1 195.94
18 89 18/U17 FFS2661232 2002 JEANGEORGES ANAIS MV BASS/RUPT SN 17:43.1 1-1 17:43.1 02:28.6 219.99
19 59 19/U17 FFS2675691 2003 LEBAY CAROLINE MB PRAZ LYS-SOM 17:43.9 1-2 17:43.9 02:29.4 220.69
20 67 20/U17 FFS2670903 2002 CROS JEANNE MB SC GD BORNAN 17:45.6 5-0 17:45.6 02:31.1 222.18
21 74 21/U17 FFS2660687 2002 GRUNEWALD ELEONORE DA VERCORS SKF 17:46.1 1-3 17:46.1 02:31.6 222.62
22 85 22/U17 FFS2664469 2003 MARCINIAK JULIE MB CS MEGEVE 17:49.1 3-2 17:49.1 02:34.6 225.24
23 56 23/U17 FFS2654837 2002 CHARVOLIN CANDICE LY SC BRENOD 17:51.0 1-1 17:51.0 02:36.5 226.91
24 78 24/U17 FFS2660383 2003 MACHUT PAULINE LY SC LE POIZAT 17:52.4 1-3 17:52.4 02:37.9 228.13
25 88 25/U17 FFS2683910 2003 COURVOISIER LEA MJ SC MONT NOIR 17:53.7 1-1 17:53.7 02:39.2 229.27
26 91 26/U17 FFS2676609 2002 CAT LENA MJ SC MONT NOIR 17:59.8 2-2 17:59.8 02:45.3 234.60
27 53 27/U17 FFS2669082 2002 ELOY LILOU SA COURCHEVEL 18:06.1 1-3 18:06.1 02:51.6 240.11
28 64 28/U17 FFS2654873 2002 GROSSET BOURBANGE LINA MB CS MEGEVE 18:12.7 2-1 18:12.7 02:58.2 245.89
29 75 29/U17 FFS2654373 2003 LAMBERT TALIA SA CS MERIBEL 18:21.0 1-3 18:21.0 03:06.5 253.15
30 52 30/U17 FFS2664314 2002 BARON FIONA MJ VAL MORTEAU 18:22.3 0-4 18:22.3 03:07.8 254.29
31 71 31/U17 FFS2660923 2003 BESSIERE ELISE DA SNB CHAMROUS 18:22.8 3-2 18:22.8 03:08.3 254.72
32 62 32/U17 FFS2676469 2003 BONY VIOLETTE MB DRAGONS ANNY 18:38.1 3-4 18:38.1 03:23.6 268.11
33 72 33/U17 FFS2677085 2003 PELLEGRINI LILLY MJ OYE-PALLET 18:45.5 3-3 18:45.5 03:31.0 274.58
34 66 34/U17 FFS2666106 2002 VIGNEAU LUCIE MB CHABLAIS NOR 18:46.9 0-1 18:46.9 03:32.4 275.81
35 90 35/U17 FFS2683259 2003 ARDIET ELEONORE MJ A.S MOUTHE 18:50.9 2-3 18:50.9 03:36.4 279.31
36 55 36/U17 FFS2675560 2002 CHOUARD JULIETTE MJ SC GRANDVAUX 18:57.3 5-0 18:57.3 03:42.8 284.90
37 101 37/U17 FFS2659929 2002 CERDAN ANNOUK LY US CORMARANC 19:07.3 2-2 19:07.3 03:52.8 293.65
38 80 38/U17 FFS2682602 2003 LEGENDRE TYFAINE MJ A.S MOUTHE 19:25.5 2-2 19:25.5 04:11.0 309.57
39 98 39/U17 FFS2655092 2003 FERRER EVA LUNA MB VILLARD/BOEG 19:26.1 0-3 19:26.1 04:11.6 310.10
40 86 40/U17 FFS2675771 2003 DUPONT CHLOE MB DRAGONS ANNY 19:43.2 4-2 19:43.2 04:28.7 325.06
41 83 41/U17 FFS2652961 2003 MILLET SOLENE MJ SMBM/MORBIER 19:43.5 2-3 19:43.5 04:29.0 325.32
42 61 42/U17 FFS2675805 2002 BESANCON ALICE MJ OLYMP MT DOR 19:54.9 2-4 19:54.9 04:40.4 335.29
43 70 43/U17 FFS2675582 2002 GAUDET ADELIE MJ OLYMP MT DOR 19:56.2 2-4 19:56.2 04:41.7 336.43
44 99 44/U17 FFS2670449 2003 BROUTIER AMELIE SA BAUGES S.N 20:06.2 2-3 20:06.2 04:51.7 345.18
45 100 45/U17 FFS2682651 2002 MORRAL FERANDIS MARIONA PE SC FTROMEUP2 20:13.8 4-4 20:13.8 04:59.3 351.83
46 81 46/U17 FFS2666103 2003 GERARD GESLIN MAILYS SA SC ARECHES 20:48.4 4-4 20:48.4 05:33.9 382.09
47 73 47/U17 FFS2670317 2003 GRAILLOT BUNING HANNA MV MOLSHEIM SN 21:20.0 4-2 21:20.0 06:05.5 409.74
48 51 48/U17 FFS2654667 2002 ANDREANI LUCILE DA CO 7 LAUX GR 21:31.2 2-2 21:31.2 06:16.7 419.54
49 58 49/U17 FFS2681355 2003 BAZARD LEANA DA SN CHARTROUS 21:51.8 5-3 21:51.8 06:37.3 437.56
Abandons
92 FFS2682542 2003 LECOULTRE LARA MJ OLYMP MT DOR
Non partants
96 FFS2671450 2002 SYLVESTRE BARON CLAIRE MB SCNP ROCHOIS